Have a Safe July 4th! 

Flight Track Log - Related Links

Times and Time Zones

All times are in EDT time to prevent confusion due to time zone crossing. See the LYM752 flight status page for this flight to view local times or setup timezone preferences in your user account.

Time Position Orientation Groundspeed Altitude Reporting Facility
EDT Latitude Longitude Course Direction KTS MPH feet Rate Location/Type
Tue 07:31:30 AM 39.8667 -104.6833 247° West 137 158 7,100  Level Denver TRACON
Tue 07:32:30 AM 39.8500 -104.7333 247° West 149 171 8,000 900 Climbing Denver TRACON
Tue 07:33:30 AM 39.8333 -104.7667 237° Southwest 118 136 8,900 866 Climbing Denver TRACON
Tue 07:34:07 AM 39.8300 -104.7950 261° West 120 138 9,400 804 Climbing Denver Center
Tue 07:35:07 AM 39.8250 -104.8372 261° West 118 136 10,200 700 Climbing Denver Center
Tue 07:36:07 AM 39.8197 -104.8792 261° West 117 135 10,800 550 Climbing Denver Center
Tue 07:37:07 AM 39.8128 -104.9233 258° West 125 144 11,300 650 Climbing Denver Center
Tue 07:38:07 AM 39.8031 -104.9661 254° West 124 143 12,100 694 Climbing Denver Center
Tue 07:39:08 AM 39.7919 -105.0078 251° West 123 142 12,700 595 Climbing Denver Center
Tue 07:40:08 AM 39.7833 -105.0506 255° West 121 139 13,300 600 Climbing Denver Center
Tue 07:41:08 AM 39.7747 -105.0919 255° West 120 138 13,900 550 Climbing Denver Center
Tue 07:42:08 AM 39.7683 -105.1319 258° West 112 129 14,400 600 Climbing Denver Center
Tue 07:43:08 AM 39.7608 -105.1739 257° West 117 135 15,100 595 Climbing Denver Center
Tue 07:44:09 AM 39.7556 -105.2153 261° West 116 133 15,600 496 Climbing Denver Center
Tue 07:45:09 AM 39.7475 -105.2561 256° West 116 133 16,100 550 Climbing Denver Center
Tue 07:46:09 AM 39.7406 -105.2969 258° West 116 133 16,700 450 Climbing Denver Center
Tue 07:47:09 AM 39.7336 -105.3378 258° West 116 133 17,000 450 Climbing Denver Center
Tue 07:48:09 AM 39.7261 -105.3786 257° West 117 135 17,600 397 Climbing Denver Center
Tue 07:49:10 AM 39.7178 -105.4208 256° West 120 138 17,800 149 Climbing Denver Center
Tue 07:50:10 AM 39.7078 -105.4650 254° West 127 146 17,900 100 Climbing Denver Center
Tue 07:51:10 AM 39.6986 -105.5172 257° West 147 169 18,000 50 Climbing Denver Center
Tue 07:52:10 AM 39.6900 -105.5703 258° West 150 173 18,000 -50 Level Denver Center
Tue 07:53:10 AM 39.6822 -105.6233 259° West 150 173 17,900  Descending Denver Center
Tue 07:54:11 AM 39.6692 -105.6769 252° West 155 178 18,000 50 Climbing Denver Center
Tue 07:55:11 AM 39.6603 -105.7344 259° West 162 186 18,000  Level Denver Center
Tue 07:56:11 AM 39.6492 -105.7906 256° West 163 188 18,000 -50 Level Denver Center
Tue 07:57:11 AM 39.6411 -105.8422 259° West 159 183 17,900 -50 Descending Denver Center
Tue 07:58:12 AM 39.6322 -105.8994 259° West 161 185 17,900  Level Denver Center
Tue 07:59:12 AM 39.6208 -105.9556 255° West 161 185 17,900  Level Denver Center
Tue 08:00:12 AM 39.6108 -106.0119 257° West 160 184 17,900  Level Denver Center
Tue 08:01:13 AM 39.6025 -106.0678 259° West 160 184 17,900 50 Level Denver Center
Tue 08:02:13 AM 39.5908 -106.1322 257° West 160 184 18,000  Climbing Denver Center
Tue 08:03:13 AM 39.5811 -106.1875 257° West 158 182 17,900  Descending Denver Center
Tue 08:04:14 AM 39.5719 -106.2447 258° West 161 185 18,000 50 Climbing Denver Center
Tue 08:05:14 AM 39.5608 -106.3014 256° West 161 185 18,000  Level Denver Center
Tue 08:06:14 AM 39.5483 -106.3578 254° West 163 188 18,000  Level Denver Center
Tue 08:07:15 AM 39.5364 -106.4153 255° West 164 189 18,000  Level Denver Center
Tue 08:08:15 AM 39.5264 -106.4736 257° West 166 191 18,000  Level Denver Center
Tue 08:09:15 AM 39.5161 -106.5281 256° West 166 191 18,000  Level Denver Center
Tue 08:10:16 AM 39.5039 -106.5942 257° West 169 194 18,000  Level Denver Center
Tue 08:11:16 AM 39.4944 -106.6506 258° West 168 193 18,000 -50 Level Denver Center
Tue 08:12:17 AM 39.4839 -106.7067 256° West 167 192 17,900 -50 Descending Denver Center
Tue 08:13:17 AM 39.4714 -106.7742 257° West 171 197 17,900  Level Denver Center
Tue 08:14:18 AM 39.4600 -106.8308 255° West 172 198 17,900  Level Denver Center
Tue 08:15:18 AM 39.4500 -106.8867 257° West 172 198 17,900 50 Level Denver Center
Tue 08:16:19 AM 39.4381 -106.9431 255° West 168 193 18,000 50 Climbing Denver Center
Tue 08:17:19 AM 39.4250 -107.0089 256° West 170 196 18,000  Level Denver Center
Tue 08:18:20 AM 39.4144 -107.0661 257° West 171 197 18,000 -49 Level Denver Center
Tue 08:19:21 AM 39.4033 -107.1194 255° West 173 199 17,900 -50 Descending Denver Center
Tue 08:20:21 AM 39.3919 -107.1800 256° West 173 199 17,900  Level Denver Center
Tue 08:21:22 AM 39.3772 -107.2483 254° West 172 198 17,900  Level Denver Center
Tue 08:22:22 AM 39.3658 -107.3058 256° West 171 197 17,900  Level Denver Center
Tue 08:23:23 AM 39.3536 -107.3728 257° West 171 197 17,900  Level Denver Center
Tue 08:24:24 AM 39.3414 -107.4297 255° West 171 197 17,900 50 Level Denver Center
Tue 08:25:24 AM 39.3331 -107.4889 260° West 173 199 18,000 -248 Climbing Denver Center
Tue 08:26:25 AM 39.3200 -107.5594 257° West 183 211 17,400 -541 Descending Denver Center
Tue 08:27:26 AM 39.3081 -107.6256 257° West 195 224 16,900 -541 Descending Denver Center
Tue 08:28:27 AM 39.2964 -107.6919 257° West 197 227 16,300 -694 Descending Denver Center
Tue 08:29:27 AM 39.2822 -107.7706 257° West 200 230 15,500 -595 Descending Denver Center
Tue 08:30:28 AM 39.2683 -107.8364 255° West 200 230 15,100 -246 Descending Denver Center
Tue 08:31:29 AM 39.2556 -107.8975 255° West 190 219 15,000 -98 Descending Denver Center
Tue 08:32:30 AM 39.2442 -107.9628 257° West 175 201 14,900 -149 Descending Denver Center
Tue 08:33:30 AM 39.2325 -108.0217 256° West 172 198 14,700 -496 Descending Denver Center
Tue 08:34:31 AM 39.2181 -108.0875 254° West 190 219 13,900 -738 Descending Denver Center
Tue 08:35:32 AM 39.2014 -108.1642 254° West 206 237 13,200 -885 Descending Denver Center
Tue 08:36:33 AM 39.1850 -108.2339 253° West 205 236 12,100 -1,190 Descending Denver Center
Tue 08:37:33 AM 39.1672 -108.3081 253° West 216 249 10,800 -1,339 Descending Denver Center
Tue 08:38:34 AM 39.1525 -108.3817 256° West 230 265 9,400 -1,033 Descending Denver Center
Tue 08:39:35 AM 39.1442 -108.4592 262° West 205 236 8,700 -738 Descending Denver Center
Tue 08:40:36 AM 39.1661 -108.5108 299° West 167 192 7,900 -1,131 Descending Denver Center
Tue 08:41:37 AM 39.1750 -108.5694 281° West 168 193 6,400 -1,328 Descending Denver Center
Tue 08:42:38 AM 39.1419 -108.5567 163° South 146 168 5,200 -793 Descending Denver Center
Tue 08:43:38 AM 39.1283 -108.5328 126° Southeast 105 121 4,800 -198 Descending Denver Center
Tue 08:44:39 AM 39.1181 -108.5253 150° Southeast 83 96 4,800  Level Denver Center

Login

Don't have an account? Register now (free) for customized features, flight alerts, and more!